Auburn, Nebraska
Current Conditions -  °F | °C
As of 5:15 AM on Tuesday 21 Oct 2014 (Local Time) from KAFK Reporting Station
Clear Clear  
Wind Chill: 45°   Ceiling: Unl
Heat Index: 48°   Visibility: 10mi
Dew Point: 33°   Wind: 7mph
Humidity: 55%   Direction: 240°WSW
Pressure: 30.09"   Gusts: NA
Location:  40.39°N, 95.84°W
Report Text: KAFK 211015Z AUTO 24006KT 10SM CLR 09/00 A3009 RMK AO2 T00910004
Loading
Personal Weather Stations






























Interactive Weather Map
Tropical Storm Tracking
New forecast layout! Learn more

10-Day Weather Forecast

Advertisements
Track Severe Weather on mobile